sensor_id;sensor_type;location;lat;lon;timestamp;P1;durP1;ratioP1;P2;durP2;ratioP2
35364;SDS011;21464;48.112;11.530;2022-09-29T00:01:41;1.70;;;1.60;;
35364;SDS011;21464;48.112;11.530;2022-09-29T00:04:07;1.80;;;1.70;;
35364;SDS011;21464;48.112;11.530;2022-09-29T00:06:34;2.70;;;1.97;;
35364;SDS011;21464;48.112;11.530;2022-09-29T00:09:00;2.13;;;1.47;;
35364;SDS011;21464;48.112;11.530;2022-09-29T00:11:25;1.70;;;1.30;;
35364;SDS011;21464;48.112;11.530;2022-09-29T00:13:53;1.53;;;1.30;;
35364;SDS011;21464;48.112;11.530;2022-09-29T00:16:19;1.87;;;1.33;;
35364;SDS011;21464;48.112;11.530;2022-09-29T00:18:45;1.10;;;1.00;;
35364;SDS011;21464;48.112;11.530;2022-09-29T00:21:13;1.20;;;1.10;;
35364;SDS011;21464;48.112;11.530;2022-09-29T00:23:39;1.37;;;1.20;;
35364;SDS011;21464;48.112;11.530;2022-09-29T00:28:31;1.13;;;1.10;;
35364;SDS011;21464;48.112;11.530;2022-09-29T00:30:58;1.50;;;1.40;;
35364;SDS011;21464;48.112;11.530;2022-09-29T00:33:25;1.23;;;1.23;;
35364;SDS011;21464;48.112;11.530;2022-09-29T00:35:56;1.57;;;1.40;;
35364;SDS011;21464;48.112;11.530;2022-09-29T00:38:24;2.83;;;1.70;;
35364;SDS011;21464;48.112;11.530;2022-09-29T00:40:49;1.40;;;1.30;;
35364;SDS011;21464;48.112;11.530;2022-09-29T00:43:23;3.03;;;1.70;;
35364;SDS011;21464;48.112;11.530;2022-09-29T00:45:50;4.40;;;1.60;;
35364;SDS011;21464;48.112;11.530;2022-09-29T00:48:19;1.90;;;1.80;;
35364;SDS011;21464;48.112;11.530;2022-09-29T00:50:47;2.07;;;1.53;;
35364;SDS011;21464;48.112;11.530;2022-09-29T00:53:14;1.63;;;1.40;;
35364;SDS011;21464;48.112;11.530;2022-09-29T00:55:42;1.53;;;1.37;;
35364;SDS011;21464;48.112;11.530;2022-09-29T00:58:12;1.93;;;1.73;;
35364;SDS011;21464;48.112;11.530;2022-09-29T01:00:43;2.20;;;2.00;;
35364;SDS011;21464;48.112;11.530;2022-09-29T01:03:10;2.33;;;2.13;;
35364;SDS011;21464;48.112;11.530;2022-09-29T01:05:39;1.77;;;1.60;;
35364;SDS011;21464;48.112;11.530;2022-09-29T01:08:09;1.90;;;1.80;;
35364;SDS011;21464;48.112;11.530;2022-09-29T01:10:38;2.30;;;1.80;;
35364;SDS011;21464;48.112;11.530;2022-09-29T01:13:04;2.50;;;2.03;;
35364;SDS011;21464;48.112;11.530;2022-09-29T01:15:30;1.83;;;1.73;;
35364;SDS011;21464;48.112;11.530;2022-09-29T01:17:56;2.20;;;1.87;;
35364;SDS011;21464;48.112;11.530;2022-09-29T01:20:23;2.17;;;1.97;;
35364;SDS011;21464;48.112;11.530;2022-09-29T01:35:47;1.70;;;1.60;;
35364;SDS011;21464;48.112;11.530;2022-09-29T01:43:19;4.60;;;1.87;;
35364;SDS011;21464;48.112;11.530;2022-09-29T01:45:49;1.70;;;1.60;;
35364;SDS011;21464;48.112;11.530;2022-09-29T01:48:17;2.37;;;1.40;;
35364;SDS011;21464;48.112;11.530;2022-09-29T01:50:46;1.63;;;1.53;;
35364;SDS011;21464;48.112;11.530;2022-09-29T01:53:14;1.63;;;1.53;;
35364;SDS011;21464;48.112;11.530;2022-09-29T01:55:43;2.57;;;1.20;;
35364;SDS011;21464;48.112;11.530;2022-09-29T01:58:16;2.90;;;1.80;;
35364;SDS011;21464;48.112;11.530;2022-09-29T02:00:46;4.50;;;1.93;;
35364;SDS011;21464;48.112;11.530;2022-09-29T02:08:12;2.23;;;1.67;;
35364;SDS011;21464;48.112;11.530;2022-09-29T02:10:40;2.53;;;1.63;;
35364;SDS011;21464;48.112;11.530;2022-09-29T02:13:11;4.23;;;1.90;;
35364;SDS011;21464;48.112;11.530;2022-09-29T02:15:38;2.90;;;2.47;;
35364;SDS011;21464;48.112;11.530;2022-09-29T02:18:09;4.07;;;3.00;;
35364;SDS011;21464;48.112;11.530;2022-09-29T02:20:37;3.00;;;2.70;;
35364;SDS011;21464;48.112;11.530;2022-09-29T02:23:03;3.60;;;3.30;;
35364;SDS011;21464;48.112;11.530;2022-09-29T02:25:29;3.50;;;3.20;;
35364;SDS011;21464;48.112;11.530;2022-09-29T02:27:59;4.17;;;3.60;;
35364;SDS011;21464;48.112;11.530;2022-09-29T02:30:25;3.53;;;3.00;;
35364;SDS011;21464;48.112;11.530;2022-09-29T02:32:51;2.67;;;2.50;;
35364;SDS011;21464;48.112;11.530;2022-09-29T02:35:17;2.77;;;2.57;;
35364;SDS011;21464;48.112;11.530;2022-09-29T02:45:22;2.70;;;2.30;;
35364;SDS011;21464;48.112;11.530;2022-09-29T02:56:11;3.50;;;3.10;;
35364;SDS011;21464;48.112;11.530;2022-09-29T02:58:16;3.30;;;3.00;;
35364;SDS011;21464;48.112;11.530;2022-09-29T03:00:43;3.10;;;2.77;;
35364;SDS011;21464;48.112;11.530;2022-09-29T03:03:09;2.30;;;2.20;;
35364;SDS011;21464;48.112;11.530;2022-09-29T03:05:35;2.77;;;2.43;;
35364;SDS011;21464;48.112;11.530;2022-09-29T03:08:01;2.20;;;2.10;;
35364;SDS011;21464;48.112;11.530;2022-09-29T03:10:27;3.17;;;2.27;;
35364;SDS011;21464;48.112;11.530;2022-09-29T03:12:53;2.43;;;2.00;;
35364;SDS011;21464;48.112;11.530;2022-09-29T03:15:18;2.07;;;1.70;;
35364;SDS011;21464;48.112;11.530;2022-09-29T03:17:44;2.00;;;1.90;;
35364;SDS011;21464;48.112;11.530;2022-09-29T03:20:10;3.13;;;1.97;;
35364;SDS011;21464;48.112;11.530;2022-09-29T03:22:36;1.90;;;1.80;;
35364;SDS011;21464;48.112;11.530;2022-09-29T03:25:03;1.60;;;1.50;;
35364;SDS011;21464;48.112;11.530;2022-09-29T03:27:31;1.90;;;1.80;;
35364;SDS011;21464;48.112;11.530;2022-09-29T03:29:57;2.20;;;2.00;;
35364;SDS011;21464;48.112;11.530;2022-09-29T03:32:22;2.87;;;2.10;;
35364;SDS011;21464;48.112;11.530;2022-09-29T03:34:48;1.90;;;1.80;;
35364;SDS011;21464;48.112;11.530;2022-09-29T03:37:14;1.70;;;1.60;;
35364;SDS011;21464;48.112;11.530;2022-09-29T03:39:40;2.87;;;1.80;;
35364;SDS011;21464;48.112;11.530;2022-09-29T03:42:06;1.47;;;1.37;;
35364;SDS011;21464;48.112;11.530;2022-09-29T03:44:32;1.87;;;1.77;;
35364;SDS011;21464;48.112;11.530;2022-09-29T03:46:58;1.97;;;1.77;;
35364;SDS011;21464;48.112;11.530;2022-09-29T03:49:25;3.50;;;3.20;;
35364;SDS011;21464;48.112;11.530;2022-09-29T03:51:51;1.70;;;1.60;;
35364;SDS011;21464;48.112;11.530;2022-09-29T03:54:17;4.00;;;2.90;;
35364;SDS011;21464;48.112;11.530;2022-09-29T03:56:43;2.83;;;2.00;;
35364;SDS011;21464;48.112;11.530;2022-09-29T03:59:09;1.50;;;1.40;;
35364;SDS011;21464;48.112;11.530;2022-09-29T04:01:36;3.77;;;3.10;;
35364;SDS011;21464;48.112;11.530;2022-09-29T04:04:02;2.13;;;1.93;;
35364;SDS011;21464;48.112;11.530;2022-09-29T04:06:28;3.03;;;2.30;;
35364;SDS011;21464;48.112;11.530;2022-09-29T04:08:54;1.63;;;1.53;;
35364;SDS011;21464;48.112;11.530;2022-09-29T04:11:20;1.60;;;1.30;;
35364;SDS011;21464;48.112;11.530;2022-09-29T04:13:46;2.10;;;1.37;;
35364;SDS011;21464;48.112;11.530;2022-09-29T04:16:12;4.87;;;4.07;;
35364;SDS011;21464;48.112;11.530;2022-09-29T04:18:38;3.60;;;3.30;;
35364;SDS011;21464;48.112;11.530;2022-09-29T04:21:05;2.97;;;2.37;;
35364;SDS011;21464;48.112;11.530;2022-09-29T04:23:31;3.60;;;3.20;;
35364;SDS011;21464;48.112;11.530;2022-09-29T04:25:57;2.13;;;1.93;;
35364;SDS011;21464;48.112;11.530;2022-09-29T04:28:23;3.53;;;1.90;;
35364;SDS011;21464;48.112;11.530;2022-09-29T04:30:49;2.00;;;1.80;;
35364;SDS011;21464;48.112;11.530;2022-09-29T04:33:15;6.40;;;5.10;;
35364;SDS011;21464;48.112;11.530;2022-09-29T04:35:41;2.30;;;2.00;;
35364;SDS011;21464;48.112;11.530;2022-09-29T04:38:07;5.23;;;4.50;;
35364;SDS011;21464;48.112;11.530;2022-09-29T04:40:34;6.40;;;3.70;;
35364;SDS011;21464;48.112;11.530;2022-09-29T04:43:00;3.20;;;2.83;;
35364;SDS011;21464;48.112;11.530;2022-09-29T04:45:26;1.53;;;1.10;;
35364;SDS011;21464;48.112;11.530;2022-09-29T04:47:52;2.20;;;1.80;;
35364;SDS011;21464;48.112;11.530;2022-09-29T04:50:17;5.17;;;4.23;;
35364;SDS011;21464;48.112;11.530;2022-09-29T04:52:44;4.60;;;4.07;;
35364;SDS011;21464;48.112;11.530;2022-09-29T04:55:10;2.90;;;2.67;;
35364;SDS011;21464;48.112;11.530;2022-09-29T04:57:37;2.57;;;2.30;;
35364;SDS011;21464;48.112;11.530;2022-09-29T05:00:03;1.93;;;1.60;;
35364;SDS011;21464;48.112;11.530;2022-09-29T05:02:30;1.63;;;1.53;;
35364;SDS011;21464;48.112;11.530;2022-09-29T05:04:55;1.67;;;1.57;;
35364;SDS011;21464;48.112;11.530;2022-09-29T05:07:21;1.40;;;1.30;;
35364;SDS011;21464;48.112;11.530;2022-09-29T05:09:47;2.73;;;2.20;;
35364;SDS011;21464;48.112;11.530;2022-09-29T05:12:13;1.63;;;1.53;;
35364;SDS011;21464;48.112;11.530;2022-09-29T05:14:39;3.40;;;2.90;;
35364;SDS011;21464;48.112;11.530;2022-09-29T05:17:05;7.73;;;5.30;;
35364;SDS011;21464;48.112;11.530;2022-09-29T05:19:31;7.90;;;5.57;;
35364;SDS011;21464;48.112;11.530;2022-09-29T05:21:57;3.93;;;2.67;;
35364;SDS011;21464;48.112;11.530;2022-09-29T05:24:24;4.17;;;3.73;;
35364;SDS011;21464;48.112;11.530;2022-09-29T05:26:50;4.20;;;3.80;;
35364;SDS011;21464;48.112;11.530;2022-09-29T05:29:16;5.20;;;3.50;;
35364;SDS011;21464;48.112;11.530;2022-09-29T05:31:42;3.03;;;2.73;;
35364;SDS011;21464;48.112;11.530;2022-09-29T05:34:08;2.60;;;1.80;;
35364;SDS011;21464;48.112;11.530;2022-09-29T05:36:34;1.80;;;1.70;;
35364;SDS011;21464;48.112;11.530;2022-09-29T05:39:00;4.03;;;3.10;;
35364;SDS011;21464;48.112;11.530;2022-09-29T05:41:26;6.33;;;3.80;;
35364;SDS011;21464;48.112;11.530;2022-09-29T05:43:52;3.30;;;2.83;;
35364;SDS011;21464;48.112;11.530;2022-09-29T05:46:18;3.90;;;2.10;;
35364;SDS011;21464;48.112;11.530;2022-09-29T05:48:45;1.97;;;1.83;;
35364;SDS011;21464;48.112;11.530;2022-09-29T05:51:12;2.30;;;1.87;;
35364;SDS011;21464;48.112;11.530;2022-09-29T05:53:39;1.90;;;1.80;;
35364;SDS011;21464;48.112;11.530;2022-09-29T05:56:06;2.40;;;2.20;;
35364;SDS011;21464;48.112;11.530;2022-09-29T05:58:32;2.27;;;2.17;;
35364;SDS011;21464;48.112;11.530;2022-09-29T06:00:58;2.77;;;2.10;;
35364;SDS011;21464;48.112;11.530;2022-09-29T06:03:24;1.73;;;1.63;;
35364;SDS011;21464;48.112;11.530;2022-09-29T06:05:50;2.03;;;1.93;;
35364;SDS011;21464;48.112;11.530;2022-09-29T06:08:16;1.67;;;1.57;;
35364;SDS011;21464;48.112;11.530;2022-09-29T06:10:42;2.47;;;2.27;;
35364;SDS011;21464;48.112;11.530;2022-09-29T06:13:08;3.80;;;3.00;;
35364;SDS011;21464;48.112;11.530;2022-09-29T06:15:33;5.77;;;3.57;;
35364;SDS011;21464;48.112;11.530;2022-09-29T06:17:59;8.87;;;6.97;;
35364;SDS011;21464;48.112;11.530;2022-09-29T06:20:26;7.07;;;4.67;;
35364;SDS011;21464;48.112;11.530;2022-09-29T06:22:52;4.17;;;3.87;;
35364;SDS011;21464;48.112;11.530;2022-09-29T06:25:18;4.53;;;3.90;;
35364;SDS011;21464;48.112;11.530;2022-09-29T06:27:44;3.97;;;3.67;;
35364;SDS011;21464;48.112;11.530;2022-09-29T06:30:10;4.07;;;3.67;;
35364;SDS011;21464;48.112;11.530;2022-09-29T06:32:38;3.53;;;3.23;;
35364;SDS011;21464;48.112;11.530;2022-09-29T06:35:04;3.23;;;3.03;;
35364;SDS011;21464;48.112;11.530;2022-09-29T06:37:48;4.63;;;3.73;;
35364;SDS011;21464;48.112;11.530;2022-09-29T06:40:14;3.87;;;3.53;;
35364;SDS011;21464;48.112;11.530;2022-09-29T06:42:40;6.70;;;5.23;;
35364;SDS011;21464;48.112;11.530;2022-09-29T06:45:06;4.20;;;3.70;;
35364;SDS011;21464;48.112;11.530;2022-09-29T06:47:33;5.03;;;3.60;;
35364;SDS011;21464;48.112;11.530;2022-09-29T06:49:59;3.80;;;3.40;;
35364;SDS011;21464;48.112;11.530;2022-09-29T06:52:26;3.73;;;3.30;;
35364;SDS011;21464;48.112;11.530;2022-09-29T06:54:53;4.70;;;2.93;;
35364;SDS011;21464;48.112;11.530;2022-09-29T06:57:19;3.27;;;2.80;;
35364;SDS011;21464;48.112;11.530;2022-09-29T06:59:44;3.30;;;2.77;;
35364;SDS011;21464;48.112;11.530;2022-09-29T07:02:10;4.00;;;3.60;;
35364;SDS011;21464;48.112;11.530;2022-09-29T07:04:36;3.33;;;3.03;;
35364;SDS011;21464;48.112;11.530;2022-09-29T07:07:02;3.90;;;3.50;;
35364;SDS011;21464;48.112;11.530;2022-09-29T07:09:28;4.47;;;3.90;;
35364;SDS011;21464;48.112;11.530;2022-09-29T07:11:54;4.50;;;4.10;;
35364;SDS011;21464;48.112;11.530;2022-09-29T07:14:21;4.20;;;3.77;;
35364;SDS011;21464;48.112;11.530;2022-09-29T07:16:50;4.00;;;3.70;;
35364;SDS011;21464;48.112;11.530;2022-09-29T07:19:17;4.10;;;3.70;;
35364;SDS011;21464;48.112;11.530;2022-09-29T07:21:44;4.40;;;4.00;;
35364;SDS011;21464;48.112;11.530;2022-09-29T07:24:10;4.77;;;4.37;;
35364;SDS011;21464;48.112;11.530;2022-09-29T07:26:36;4.90;;;4.47;;
35364;SDS011;21464;48.112;11.530;2022-09-29T07:29:02;5.03;;;4.27;;
35364;SDS011;21464;48.112;11.530;2022-09-29T07:31:28;4.50;;;4.10;;
35364;SDS011;21464;48.112;11.530;2022-09-29T07:33:55;4.00;;;3.63;;
35364;SDS011;21464;48.112;11.530;2022-09-29T07:36:21;4.00;;;3.70;;
35364;SDS011;21464;48.112;11.530;2022-09-29T07:38:48;4.37;;;3.57;;
35364;SDS011;21464;48.112;11.530;2022-09-29T07:41:14;4.13;;;3.53;;
35364;SDS011;21464;48.112;11.530;2022-09-29T07:43:40;5.73;;;3.80;;
35364;SDS011;21464;48.112;11.530;2022-09-29T07:46:06;3.70;;;3.40;;
35364;SDS011;21464;48.112;11.530;2022-09-29T07:48:33;3.60;;;3.27;;
35364;SDS011;21464;48.112;11.530;2022-09-29T07:50:59;3.87;;;3.47;;
35364;SDS011;21464;48.112;11.530;2022-09-29T07:53:26;5.17;;;4.17;;
35364;SDS011;21464;48.112;11.530;2022-09-29T07:55:52;4.23;;;3.50;;
35364;SDS011;21464;48.112;11.530;2022-09-29T07:58:18;3.10;;;2.80;;
35364;SDS011;21464;48.112;11.530;2022-09-29T08:00:43;5.30;;;3.00;;
35364;SDS011;21464;48.112;11.530;2022-09-29T08:03:09;2.70;;;2.50;;
35364;SDS011;21464;48.112;11.530;2022-09-29T08:05:35;3.70;;;2.13;;
35364;SDS011;21464;48.112;11.530;2022-09-29T08:08:02;2.47;;;2.20;;
35364;SDS011;21464;48.112;11.530;2022-09-29T08:10:31;2.93;;;2.67;;
35364;SDS011;21464;48.112;11.530;2022-09-29T08:12:58;2.50;;;2.30;;
35364;SDS011;21464;48.112;11.530;2022-09-29T08:15:24;2.80;;;1.90;;
35364;SDS011;21464;48.112;11.530;2022-09-29T08:17:51;2.50;;;2.30;;
35364;SDS011;21464;48.112;11.530;2022-09-29T08:20:17;4.00;;;1.97;;
35364;SDS011;21464;48.112;11.530;2022-09-29T08:22:43;2.60;;;2.40;;
35364;SDS011;21464;48.112;11.530;2022-09-29T08:25:09;3.50;;;2.17;;
35364;SDS011;21464;48.112;11.530;2022-09-29T08:27:35;2.30;;;2.03;;
35364;SDS011;21464;48.112;11.530;2022-09-29T08:30:00;2.57;;;2.37;;
35364;SDS011;21464;48.112;11.530;2022-09-29T08:32:26;2.50;;;2.00;;
35364;SDS011;21464;48.112;11.530;2022-09-29T08:34:53;2.07;;;1.87;;
35364;SDS011;21464;48.112;11.530;2022-09-29T08:37:19;2.10;;;1.90;;
35364;SDS011;21464;48.112;11.530;2022-09-29T08:39:44;1.80;;;1.70;;
35364;SDS011;21464;48.112;11.530;2022-09-29T08:44:41;2.40;;;1.97;;
35364;SDS011;21464;48.112;11.530;2022-09-29T08:49:45;1.73;;;1.60;;
35364;SDS011;21464;48.112;11.530;2022-09-29T08:52:16;1.60;;;1.50;;
35364;SDS011;21464;48.112;11.530;2022-09-29T08:54:44;2.23;;;1.33;;
35364;SDS011;21464;48.112;11.530;2022-09-29T08:57:11;2.90;;;1.20;;
35364;SDS011;21464;48.112;11.530;2022-09-29T08:59:42;1.50;;;1.40;;
35364;SDS011;21464;48.112;11.530;2022-09-29T09:07:41;1.60;;;1.50;;
35364;SDS011;21464;48.112;11.530;2022-09-29T09:26:04;1.37;;;1.27;;
35364;SDS011;21464;48.112;11.530;2022-09-29T09:28:40;1.03;;;1.03;;
35364;SDS011;21464;48.112;11.530;2022-09-29T09:31:10;1.57;;;1.00;;
35364;SDS011;21464;48.112;11.530;2022-09-29T09:36:33;2.33;;;1.10;;
35364;SDS011;21464;48.112;11.530;2022-09-29T09:39:17;1.47;;;1.07;;
35364;SDS011;21464;48.112;11.530;2022-09-29T09:41:45;1.43;;;1.10;;
35364;SDS011;21464;48.112;11.530;2022-09-29T09:44:17;1.90;;;1.00;;
35364;SDS011;21464;48.112;11.530;2022-09-29T09:46:51;0.80;;;0.80;;
35364;SDS011;21464;48.112;11.530;2022-09-29T09:49:25;1.27;;;0.93;;
35364;SDS011;21464;48.112;11.530;2022-09-29T10:01:51;1.00;;;1.00;;
35364;SDS011;21464;48.112;11.530;2022-09-29T10:04:17;1.97;;;1.23;;
35364;SDS011;21464;48.112;11.530;2022-09-29T10:06:43;1.13;;;1.10;;
35364;SDS011;21464;48.112;11.530;2022-09-29T10:09:13;2.23;;;1.83;;
35364;SDS011;21464;48.112;11.530;2022-09-29T10:11:39;4.87;;;3.13;;
35364;SDS011;21464;48.112;11.530;2022-09-29T10:16:45;1.53;;;1.20;;
35364;SDS011;21464;48.112;11.530;2022-09-29T10:19:13;2.10;;;1.50;;
35364;SDS011;21464;48.112;11.530;2022-09-29T10:21:40;1.53;;;1.30;;
35364;SDS011;21464;48.112;11.530;2022-09-29T10:24:20;2.53;;;1.57;;
35364;SDS011;21464;48.112;11.530;2022-09-29T10:26:46;2.30;;;1.60;;
35364;SDS011;21464;48.112;11.530;2022-09-29T10:34:24;24.53;;;11.27;;
35364;SDS011;21464;48.112;11.530;2022-09-29T10:41:58;4.03;;;2.47;;
35364;SDS011;21464;48.112;11.530;2022-09-29T10:44:23;2.90;;;1.80;;
35364;SDS011;21464;48.112;11.530;2022-09-29T10:46:56;2.07;;;1.80;;
35364;SDS011;21464;48.112;11.530;2022-09-29T10:49:22;3.40;;;3.10;;
35364;SDS011;21464;48.112;11.530;2022-09-29T10:54:20;2.13;;;1.93;;
35364;SDS011;21464;48.112;11.530;2022-09-29T10:56:50;2.90;;;2.07;;
35364;SDS011;21464;48.112;11.530;2022-09-29T10:59:17;1.70;;;1.50;;
35364;SDS011;21464;48.112;11.530;2022-09-29T11:01:44;1.40;;;1.30;;
35364;SDS011;21464;48.112;11.530;2022-09-29T11:04:33;1.80;;;1.63;;
35364;SDS011;21464;48.112;11.530;2022-09-29T11:07:05;1.47;;;1.37;;
35364;SDS011;21464;48.112;11.530;2022-09-29T11:09:36;2.13;;;1.73;;
35364;SDS011;21464;48.112;11.530;2022-09-29T11:12:02;3.00;;;1.80;;
35364;SDS011;21464;48.112;11.530;2022-09-29T11:17:00;2.10;;;1.90;;
35364;SDS011;21464;48.112;11.530;2022-09-29T11:19:30;4.10;;;2.87;;
35364;SDS011;21464;48.112;11.530;2022-09-29T11:29:43;4.40;;;2.40;;
35364;SDS011;21464;48.112;11.530;2022-09-29T11:37:20;2.97;;;2.40;;
35364;SDS011;21464;48.112;11.530;2022-09-29T11:40:11;1.93;;;1.83;;
35364;SDS011;21464;48.112;11.530;2022-09-29T11:45:41;6.33;;;4.90;;
35364;SDS011;21464;48.112;11.530;2022-09-29T11:48:18;4.00;;;3.50;;
35364;SDS011;21464;48.112;11.530;2022-09-29T12:01:15;2.20;;;1.80;;
35364;SDS011;21464;48.112;11.530;2022-09-29T12:11:49;2.23;;;2.03;;
35364;SDS011;21464;48.112;11.530;2022-09-29T12:14:20;3.47;;;2.20;;
35364;SDS011;21464;48.112;11.530;2022-09-29T12:16:53;1.50;;;1.40;;
35364;SDS011;21464;48.112;11.530;2022-09-29T12:19:28;1.90;;;1.80;;
35364;SDS011;21464;48.112;11.530;2022-09-29T12:21:56;1.70;;;1.50;;
35364;SDS011;21464;48.112;11.530;2022-09-29T12:24:42;1.57;;;1.37;;
35364;SDS011;21464;48.112;11.530;2022-09-29T12:27:19;1.60;;;1.50;;
35364;SDS011;21464;48.112;11.530;2022-09-29T12:29:50;1.60;;;1.50;;
35364;SDS011;21464;48.112;11.530;2022-09-29T12:32:28;2.03;;;1.57;;
35364;SDS011;21464;48.112;11.530;2022-09-29T12:34:58;1.90;;;1.70;;
35364;SDS011;21464;48.112;11.530;2022-09-29T12:37:33;1.77;;;1.67;;
35364;SDS011;21464;48.112;11.530;2022-09-29T12:40:02;3.27;;;1.50;;
35364;SDS011;21464;48.112;11.530;2022-09-29T12:45:13;2.10;;;1.90;;
35364;SDS011;21464;48.112;11.530;2022-09-29T12:47:44;2.30;;;2.20;;
35364;SDS011;21464;48.112;11.530;2022-09-29T12:52:48;9.27;;;6.90;;
35364;SDS011;21464;48.112;11.530;2022-09-29T12:56:03;2.90;;;2.70;;
35364;SDS011;21464;48.112;11.530;2022-09-29T12:58:03;4.13;;;2.73;;
35364;SDS011;21464;48.112;11.530;2022-09-29T13:00:31;2.40;;;2.20;;
35364;SDS011;21464;48.112;11.530;2022-09-29T13:05:44;3.67;;;3.17;;
35364;SDS011;21464;48.112;11.530;2022-09-29T13:18:47;2.70;;;2.50;;
35364;SDS011;21464;48.112;11.530;2022-09-29T13:28:39;2.90;;;2.67;;
35364;SDS011;21464;48.112;11.530;2022-09-29T13:31:07;3.63;;;3.03;;
35364;SDS011;21464;48.112;11.530;2022-09-29T13:33:36;4.13;;;2.70;;
35364;SDS011;21464;48.112;11.530;2022-09-29T13:36:02;2.47;;;2.28;;
35364;SDS011;21464;48.112;11.530;2022-09-29T13:38:29;2.27;;;2.07;;
35364;SDS011;21464;48.112;11.530;2022-09-29T13:48:52;4.17;;;2.30;;
35364;SDS011;21464;48.112;11.530;2022-09-29T13:51:25;2.50;;;2.30;;
35364;SDS011;21464;48.112;11.530;2022-09-29T13:56:36;3.00;;;2.70;;
35364;SDS011;21464;48.112;11.530;2022-09-29T13:59:03;4.10;;;2.45;;
35364;SDS011;21464;48.112;11.530;2022-09-29T14:01:30;3.77;;;2.87;;
35364;SDS011;21464;48.112;11.530;2022-09-29T14:03:56;5.37;;;3.13;;
35364;SDS011;21464;48.112;11.530;2022-09-29T14:06:24;4.17;;;3.77;;
35364;SDS011;21464;48.112;11.530;2022-09-29T14:08:58;4.32;;;4.00;;
35364;SDS011;21464;48.112;11.530;2022-09-29T14:11:41;3.53;;;3.23;;
35364;SDS011;21464;48.112;11.530;2022-09-29T14:14:13;3.80;;;3.50;;
35364;SDS011;21464;48.112;11.530;2022-09-29T14:19:15;5.50;;;3.40;;
35364;SDS011;21464;48.112;11.530;2022-09-29T14:29:43;4.00;;;3.70;;
35364;SDS011;21464;48.112;11.530;2022-09-29T14:32:14;3.73;;;3.43;;
35364;SDS011;21464;48.112;11.530;2022-09-29T14:34:42;5.67;;;4.90;;
35364;SDS011;21464;48.112;11.530;2022-09-29T14:37:13;5.13;;;4.43;;
35364;SDS011;21464;48.112;11.530;2022-09-29T14:39:41;4.50;;;4.10;;
35364;SDS011;21464;48.112;11.530;2022-09-29T14:42:27;5.40;;;4.30;;
35364;SDS011;21464;48.112;11.530;2022-09-29T14:44:54;5.10;;;4.40;;
35364;SDS011;21464;48.112;11.530;2022-09-29T14:47:59;4.70;;;4.30;;
35364;SDS011;21464;48.112;11.530;2022-09-29T14:50:48;4.87;;;3.90;;
35364;SDS011;21464;48.112;11.530;2022-09-29T14:56:29;5.20;;;4.70;;
35364;SDS011;21464;48.112;11.530;2022-09-29T14:59:11;5.03;;;4.60;;
35364;SDS011;21464;48.112;11.530;2022-09-29T15:01:41;8.70;;;7.13;;
35364;SDS011;21464;48.112;11.530;2022-09-29T15:04:20;5.20;;;4.70;;
35364;SDS011;21464;48.112;11.530;2022-09-29T15:06:47;5.00;;;4.60;;
35364;SDS011;21464;48.112;11.530;2022-09-29T15:09:21;4.83;;;4.37;;
35364;SDS011;21464;48.112;11.530;2022-09-29T15:11:48;5.20;;;4.60;;
35364;SDS011;21464;48.112;11.530;2022-09-29T15:14:21;4.80;;;4.40;;
35364;SDS011;21464;48.112;11.530;2022-09-29T15:27:25;7.20;;;5.57;;
35364;SDS011;21464;48.112;11.530;2022-09-29T15:29:53;6.03;;;5.40;;
35364;SDS011;21464;48.112;11.530;2022-09-29T15:34:45;5.87;;;5.20;;
35364;SDS011;21464;48.112;11.530;2022-09-29T15:37:11;6.40;;;5.30;;
35364;SDS011;21464;48.112;11.530;2022-09-29T15:39:43;6.20;;;5.60;;
35364;SDS011;21464;48.112;11.530;2022-09-29T15:42:11;5.77;;;5.27;;
35364;SDS011;21464;48.112;11.530;2022-09-29T15:44:43;6.50;;;5.73;;
35364;SDS011;21464;48.112;11.530;2022-09-29T15:47:17;5.77;;;5.33;;
35364;SDS011;21464;48.112;11.530;2022-09-29T15:49:48;6.90;;;6.20;;
35364;SDS011;21464;48.112;11.530;2022-09-29T15:52:15;9.03;;;8.13;;
35364;SDS011;21464;48.112;11.530;2022-09-29T15:54:43;6.77;;;5.77;;
35364;SDS011;21464;48.112;11.530;2022-09-29T16:02:47;13.00;;;10.67;;
35364;SDS011;21464;48.112;11.530;2022-09-29T16:05:14;10.13;;;8.60;;
35364;SDS011;21464;48.112;11.530;2022-09-29T16:07:49;8.83;;;7.53;;
35364;SDS011;21464;48.112;11.530;2022-09-29T16:10:19;11.10;;;9.40;;
35364;SDS011;21464;48.112;11.530;2022-09-29T16:12:52;10.90;;;7.87;;
35364;SDS011;21464;48.112;11.530;2022-09-29T16:15:39;7.80;;;6.93;;
35364;SDS011;21464;48.112;11.530;2022-09-29T16:18:08;7.43;;;6.77;;
35364;SDS011;21464;48.112;11.530;2022-09-29T16:20:36;8.90;;;8.00;;
35364;SDS011;21464;48.112;11.530;2022-09-29T16:28:33;8.07;;;7.30;;
35364;SDS011;21464;48.112;11.530;2022-09-29T16:31:03;10.53;;;9.03;;
35364;SDS011;21464;48.112;11.530;2022-09-29T16:33:31;9.83;;;7.80;;
35364;SDS011;21464;48.112;11.530;2022-09-29T16:36:17;9.10;;;8.13;;
35364;SDS011;21464;48.112;11.530;2022-09-29T16:38:45;10.27;;;8.20;;
35364;SDS011;21464;48.112;11.530;2022-09-29T16:43:43;14.77;;;13.10;;
35364;SDS011;21464;48.112;11.530;2022-09-29T16:46:14;10.30;;;9.30;;
35364;SDS011;21464;48.112;11.530;2022-09-29T16:48:41;10.73;;;9.63;;
35364;SDS011;21464;48.112;11.530;2022-09-29T16:51:18;8.47;;;7.67;;
35364;SDS011;21464;48.112;11.530;2022-09-29T16:53:45;8.37;;;7.57;;
35364;SDS011;21464;48.112;11.530;2022-09-29T16:58:43;10.77;;;9.60;;
35364;SDS011;21464;48.112;11.530;2022-09-29T17:01:09;9.23;;;8.33;;
35364;SDS011;21464;48.112;11.530;2022-09-29T17:03:39;9.10;;;8.10;;
35364;SDS011;21464;48.112;11.530;2022-09-29T17:06:07;10.30;;;8.90;;
35364;SDS011;21464;48.112;11.530;2022-09-29T17:08:34;9.20;;;8.13;;
35364;SDS011;21464;48.112;11.530;2022-09-29T17:10:59;8.17;;;6.97;;
35364;SDS011;21464;48.112;11.530;2022-09-29T17:13:27;7.63;;;6.73;;
35364;SDS011;21464;48.112;11.530;2022-09-29T17:15:55;7.13;;;6.53;;
35364;SDS011;21464;48.112;11.530;2022-09-29T17:18:21;7.00;;;6.30;;
35364;SDS011;21464;48.112;11.530;2022-09-29T17:20:49;6.80;;;6.17;;
35364;SDS011;21464;48.112;11.530;2022-09-29T17:23:15;6.17;;;5.67;;
35364;SDS011;21464;48.112;11.530;2022-09-29T17:25:42;6.83;;;6.23;;
35364;SDS011;21464;48.112;11.530;2022-09-29T17:28:11;6.47;;;5.87;;
35364;SDS011;21464;48.112;11.530;2022-09-29T17:30:38;6.93;;;6.23;;
35364;SDS011;21464;48.112;11.530;2022-09-29T17:33:04;5.93;;;5.43;;
35364;SDS011;21464;48.112;11.530;2022-09-29T17:35:31;7.93;;;7.13;;
35364;SDS011;21464;48.112;11.530;2022-09-29T17:37:57;8.87;;;7.87;;
35364;SDS011;21464;48.112;11.530;2022-09-29T17:42:49;6.40;;;5.77;;
35364;SDS011;21464;48.112;11.530;2022-09-29T17:45:16;6.00;;;4.80;;
35364;SDS011;21464;48.112;11.530;2022-09-29T17:47:42;5.50;;;5.00;;
35364;SDS011;21464;48.112;11.530;2022-09-29T17:50:16;4.73;;;4.23;;
35364;SDS011;21464;48.112;11.530;2022-09-29T17:52:43;9.18;;;8.27;;
35364;SDS011;21464;48.112;11.530;2022-09-29T17:55:09;4.73;;;4.33;;
35364;SDS011;21464;48.112;11.530;2022-09-29T17:57:37;4.80;;;4.40;;
35364;SDS011;21464;48.112;11.530;2022-09-29T18:00:26;4.57;;;4.27;;
35364;SDS011;21464;48.112;11.530;2022-09-29T18:02:50;4.70;;;4.30;;
35364;SDS011;21464;48.112;11.530;2022-09-29T18:05:19;4.73;;;4.33;;
35364;SDS011;21464;48.112;11.530;2022-09-29T18:07:48;4.77;;;3.90;;
35364;SDS011;21464;48.112;11.530;2022-09-29T18:10:17;3.80;;;3.50;;
35364;SDS011;21464;48.112;11.530;2022-09-29T18:12:43;4.10;;;3.80;;
35364;SDS011;21464;48.112;11.530;2022-09-29T18:15:09;4.40;;;4.00;;